createdAt,value
2017-10-03T00:01:43.062Z,15.10
2017-10-03T00:04:11.927Z,15.10
2017-10-03T00:06:41.547Z,15.10
2017-10-03T00:09:10.795Z,15.10
2017-10-03T00:11:39.623Z,15.10
2017-10-03T00:14:08.458Z,15.10
2017-10-03T00:16:37.334Z,15.10
2017-10-03T00:19:06.926Z,15.10
2017-10-03T00:21:36.517Z,15.10
2017-10-03T00:24:05.393Z,15.00
2017-10-03T00:26:34.903Z,15.10
2017-10-03T00:29:03.730Z,15.10
2017-10-03T00:31:34.243Z,15.10
2017-10-03T00:34:03.847Z,15.10
2017-10-03T00:36:32.670Z,15.10
2017-10-03T00:39:01.510Z,15.10
2017-10-03T00:41:30.346Z,15.10
2017-10-03T00:43:59.173Z,15.10
2017-10-03T00:46:28.010Z,15.10
2017-10-03T00:48:57.597Z,15.10
2017-10-03T00:51:26.182Z,15.10
2017-10-03T00:53:55.013Z,15.10
2017-10-03T00:56:23.150Z,15.10
2017-10-03T00:58:51.297Z,15.10
2017-10-03T01:01:20.121Z,15.10
2017-10-03T01:03:49.719Z,15.10
2017-10-03T01:06:18.279Z,15.10
2017-10-03T01:08:47.112Z,15.00
2017-10-03T01:11:16.356Z,14.60
2017-10-03T01:13:45.202Z,14.60
2017-10-03T01:16:14.840Z,14.30
2017-10-03T01:18:43.670Z,14.30
2017-10-03T01:21:12.503Z,14.10
2017-10-03T01:23:41.165Z,14.00
2017-10-03T01:26:09.835Z,13.90
2017-10-03T01:28:38.691Z,13.80
2017-10-03T01:31:07.530Z,13.70
2017-10-03T01:33:36.374Z,13.70
2017-10-03T01:36:05.203Z,13.70
2017-10-03T01:38:33.693Z,13.60
2017-10-03T01:41:02.531Z,13.60
2017-10-03T01:43:31.358Z,13.50
2017-10-03T01:46:00.185Z,13.40
2017-10-03T01:48:30.602Z,13.50
2017-10-03T01:50:59.437Z,13.50
2017-10-03T01:53:29.069Z,13.40
2017-10-03T01:55:57.634Z,13.40
2017-10-03T01:58:26.276Z,13.40
2017-10-03T02:00:55.709Z,13.30
2017-10-03T02:03:24.534Z,13.30
2017-10-03T02:05:53.195Z,13.30
2017-10-03T02:08:22.047Z,13.30
2017-10-03T02:10:50.877Z,13.30
2017-10-03T02:13:19.713Z,13.30
2017-10-03T02:15:48.552Z,13.20
2017-10-03T02:18:17.383Z,13.20
2017-10-03T02:20:46.485Z,13.20
2017-10-03T02:23:15.129Z,13.30
2017-10-03T02:25:43.958Z,13.20
2017-10-03T02:28:12.794Z,13.20
2017-10-03T02:30:41.624Z,13.20
2017-10-03T02:33:10.453Z,13.30
2017-10-03T02:35:40.057Z,13.40
2017-10-03T02:38:08.890Z,13.30
2017-10-03T02:40:38.651Z,13.40
2017-10-03T02:43:07.481Z,13.40
2017-10-03T02:45:36.121Z,13.30
2017-10-03T02:48:04.953Z,13.40
2017-10-03T02:50:33.792Z,13.40
2017-10-03T02:53:02.436Z,13.40
2017-10-03T02:55:31.264Z,13.40
2017-10-03T02:58:00.089Z,13.50
2017-10-03T03:00:29.695Z,13.50
2017-10-03T03:02:59.110Z,13.60
2017-10-03T03:05:28.705Z,13.60
2017-10-03T03:07:58.309Z,13.60
2017-10-03T03:10:27.138Z,13.60
2017-10-03T03:12:55.990Z,13.60
2017-10-03T03:15:25.251Z,13.60
2017-10-03T03:17:54.093Z,13.50
2017-10-03T03:20:23.698Z,13.50
2017-10-03T03:22:53.298Z,13.40
2017-10-03T03:25:22.128Z,13.40
2017-10-03T03:27:50.962Z,13.40
2017-10-03T03:30:19.804Z,13.40
2017-10-03T03:32:48.638Z,13.50
2017-10-03T03:35:17.484Z,13.50
2017-10-03T03:37:46.330Z,13.60
2017-10-03T03:40:15.186Z,13.60
2017-10-03T03:42:44.023Z,13.50
2017-10-03T03:45:13.630Z,13.50
2017-10-03T03:47:42.458Z,13.50
2017-10-03T03:50:11.297Z,13.50
2017-10-03T03:52:40.135Z,13.50
2017-10-03T03:55:08.781Z,13.50
2017-10-03T03:57:37.619Z,13.40
2017-10-03T04:00:06.435Z,13.40
2017-10-03T04:02:35.280Z,13.30
2017-10-03T04:05:04.174Z,13.40
2017-10-03T04:07:33.763Z,13.40
2017-10-03T04:10:02.590Z,13.40
2017-10-03T04:12:31.425Z,13.40
2017-10-03T04:15:00.266Z,13.50
2017-10-03T04:17:28.913Z,13.50
2017-10-03T04:19:58.446Z,13.60
2017-10-03T04:22:28.048Z,13.60
2017-10-03T04:24:56.877Z,13.60
2017-10-03T04:27:25.718Z,13.60
2017-10-03T04:29:55.317Z,13.50
2017-10-03T04:32:24.146Z,13.50
2017-10-03T04:34:52.982Z,13.50
2017-10-03T04:37:21.818Z,13.40
2017-10-03T04:39:50.654Z,13.30
2017-10-03T04:42:20.367Z,13.30
2017-10-03T04:44:49.211Z,13.30
2017-10-03T04:47:18.046Z,13.20
2017-10-03T04:49:46.885Z,13.20
2017-10-03T04:52:15.754Z,13.20
2017-10-03T04:54:44.580Z,13.20
2017-10-03T04:57:13.414Z,13.20
2017-10-03T04:59:42.258Z,13.20
2017-10-03T05:02:11.082Z,13.20
2017-10-03T05:04:39.914Z,13.10
2017-10-03T05:07:09.517Z,13.00
2017-10-03T05:09:39.122Z,12.90
2017-10-03T05:12:07.946Z,12.90
2017-10-03T05:14:36.776Z,12.90
2017-10-03T05:17:05.610Z,12.90
2017-10-03T05:19:35.215Z,12.90
2017-10-03T05:22:04.810Z,12.90
2017-10-03T05:24:34.421Z,12.90
2017-10-03T05:27:04.021Z,12.90
2017-10-03T05:29:33.527Z,12.80
2017-10-03T05:32:02.391Z,12.90
2017-10-03T05:34:31.238Z,12.90
2017-10-03T05:37:00.078Z,12.90
2017-10-03T05:39:28.918Z,12.90
2017-10-03T05:41:57.754Z,12.90
2017-10-03T05:44:27.181Z,13.00
2017-10-03T05:46:56.028Z,13.00
2017-10-03T05:49:24.861Z,13.00
2017-10-03T05:51:53.739Z,13.00
2017-10-03T05:54:22.576Z,13.00
2017-10-03T05:56:51.413Z,13.00
2017-10-03T05:59:20.279Z,13.00
2017-10-03T06:01:49.116Z,13.00
2017-10-03T06:04:18.725Z,13.00
2017-10-03T06:06:47.565Z,13.00
2017-10-03T06:09:17.263Z,13.00
2017-10-03T06:11:47.007Z,13.00
2017-10-03T06:14:15.846Z,13.00
2017-10-03T06:16:45.249Z,13.00
2017-10-03T06:19:14.887Z,13.00
2017-10-03T06:21:43.722Z,13.00
2017-10-03T06:24:12.561Z,13.00
2017-10-03T06:26:41.390Z,12.90
2017-10-03T06:29:10.218Z,13.00
2017-10-03T06:31:39.811Z,12.90
2017-10-03T06:34:08.452Z,12.90
2017-10-03T06:36:38.054Z,12.90
2017-10-03T06:39:06.904Z,12.90
2017-10-03T06:41:35.733Z,12.90
2017-10-03T06:44:04.580Z,13.00
2017-10-03T06:46:33.426Z,12.90
2017-10-03T06:49:02.269Z,13.00
2017-10-03T06:51:31.878Z,12.90
2017-10-03T06:54:00.713Z,12.90
2017-10-03T06:56:29.561Z,12.90
2017-10-03T06:58:59.163Z,12.90
2017-10-03T07:01:27.997Z,12.90
2017-10-03T07:03:56.835Z,12.90
2017-10-03T07:06:25.483Z,12.90
2017-10-03T07:08:54.332Z,12.80
2017-10-03T07:11:23.940Z,12.90
2017-10-03T07:13:53.543Z,12.80
2017-10-03T07:16:22.380Z,12.80
2017-10-03T07:18:51.226Z,12.90
2017-10-03T07:21:20.653Z,12.90
2017-10-03T07:23:49.315Z,12.90
2017-10-03T07:26:18.917Z,14.10
2017-10-03T07:28:48.360Z,14.10
2017-10-03T07:31:17.195Z,14.40
2017-10-03T07:33:46.045Z,14.30
2017-10-03T07:36:14.896Z,14.10
2017-10-03T07:38:44.513Z,13.70
2017-10-03T07:41:14.109Z,13.60
2017-10-03T07:43:42.948Z,13.60
2017-10-03T07:46:11.802Z,13.60
2017-10-03T07:48:41.997Z,13.50
2017-10-03T07:51:10.827Z,13.50
2017-10-03T07:53:40.221Z,13.30
2017-10-03T07:56:09.613Z,13.20
2017-10-03T07:58:38.450Z,13.20
2017-10-03T08:01:07.287Z,13.30
2017-10-03T08:03:36.124Z,13.30
2017-10-03T08:06:04.965Z,13.20
2017-10-03T08:08:33.798Z,13.10
2017-10-03T08:11:02.634Z,13.20
2017-10-03T08:13:31.475Z,13.10
2017-10-03T08:16:00.298Z,13.20
2017-10-03T08:18:28.957Z,13.20
2017-10-03T08:20:57.800Z,13.10
2017-10-03T08:23:26.650Z,13.20
2017-10-03T08:25:55.493Z,13.30
2017-10-03T08:28:24.315Z,13.30
2017-10-03T08:30:53.170Z,13.20
2017-10-03T08:33:22.005Z,13.20
2017-10-03T08:35:50.851Z,13.20
2017-10-03T08:38:20.667Z,13.20
2017-10-03T08:40:49.510Z,13.20
2017-10-03T08:43:18.351Z,13.30
2017-10-03T08:45:47.170Z,13.30
2017-10-03T08:48:16.749Z,13.20
2017-10-03T08:50:45.589Z,13.20
2017-10-03T08:53:14.238Z,13.20
2017-10-03T08:55:44.048Z,13.10
2017-10-03T08:58:17.283Z,13.10
2017-10-03T09:00:45.988Z,13.10
2017-10-03T09:03:14.813Z,13.00
2017-10-03T09:05:44.224Z,13.00
2017-10-03T09:08:13.850Z,12.90
2017-10-03T09:10:43.121Z,12.90
2017-10-03T09:13:11.967Z,12.90
2017-10-03T09:15:41.877Z,12.80
2017-10-03T09:18:11.166Z,12.80
2017-10-03T09:20:39.716Z,12.70
2017-10-03T09:23:09.338Z,12.80
2017-10-03T09:25:38.953Z,12.70
2017-10-03T09:28:08.610Z,12.70
2017-10-03T09:30:38.014Z,12.70
2017-10-03T09:33:06.858Z,12.70
2017-10-03T09:35:35.730Z,12.70
2017-10-03T09:38:05.358Z,12.60
2017-10-03T09:40:36.198Z,12.60
2017-10-03T09:43:05.046Z,12.60
2017-10-03T09:45:33.882Z,12.60
2017-10-03T09:48:04.526Z,12.50
2017-10-03T09:50:33.391Z,12.60
2017-10-03T09:53:03.008Z,12.50
2017-10-03T09:55:31.869Z,12.50
2017-10-03T09:58:00.727Z,12.50
2017-10-03T10:00:29.581Z,12.50
2017-10-03T10:02:59.188Z,12.60
2017-10-03T10:05:28.793Z,12.60
2017-10-03T10:07:58.626Z,12.60
2017-10-03T10:10:27.515Z,12.60
2017-10-03T10:12:56.358Z,12.60
2017-10-03T10:15:25.198Z,12.70
2017-10-03T10:17:54.026Z,12.80
2017-10-03T10:20:22.870Z,12.80
2017-10-03T10:22:56.475Z,12.80
2017-10-03T10:25:25.334Z,12.80
2017-10-03T10:27:55.986Z,12.80
2017-10-03T10:30:25.242Z,12.90
2017-10-03T10:32:54.186Z,12.90
2017-10-03T10:35:23.022Z,12.90
2017-10-03T10:37:51.683Z,12.90
2017-10-03T10:40:21.380Z,13.00
2017-10-03T10:42:50.218Z,13.00
2017-10-03T10:45:20.007Z,13.10
2017-10-03T10:47:48.939Z,13.10
2017-10-03T10:50:17.818Z,13.10
2017-10-03T10:52:46.649Z,13.20
2017-10-03T10:55:16.143Z,13.20
2017-10-03T10:57:45.776Z,13.40
2017-10-03T11:00:14.626Z,13.40
2017-10-03T11:02:43.480Z,13.50
2017-10-03T11:05:12.339Z,13.50
2017-10-03T11:07:41.181Z,13.60
2017-10-03T11:10:10.114Z,13.60
2017-10-03T11:12:39.059Z,13.70
2017-10-03T11:15:07.910Z,13.70
2017-10-03T11:17:36.762Z,13.80
2017-10-03T11:20:05.672Z,14.00
2017-10-03T11:22:34.734Z,14.20
2017-10-03T11:25:04.598Z,14.30
2017-10-03T11:27:33.470Z,14.40
2017-10-03T11:30:03.648Z,14.70
2017-10-03T11:32:32.533Z,14.70
2017-10-03T11:35:01.381Z,15.00
2017-10-03T11:37:31.213Z,15.60
2017-10-03T11:40:00.925Z,15.60
2017-10-03T11:42:31.993Z,15.70
2017-10-03T11:45:00.845Z,15.70
2017-10-03T11:47:29.585Z,15.70
2017-10-03T11:49:58.425Z,15.70
2017-10-03T11:52:27.275Z,15.80
2017-10-03T11:54:56.514Z,15.90
2017-10-03T11:57:26.117Z,15.90
2017-10-03T11:59:55.738Z,15.90
2017-10-03T12:02:24.601Z,15.90
2017-10-03T12:04:54.259Z,15.80
2017-10-03T12:07:23.887Z,15.70
2017-10-03T12:09:52.818Z,15.70
2017-10-03T12:12:23.259Z,15.80
2017-10-03T12:15:03.321Z,15.80
2017-10-03T12:17:32.621Z,15.80
2017-10-03T12:20:01.508Z,15.70
2017-10-03T12:22:30.350Z,15.70
2017-10-03T12:24:59.305Z,15.80
2017-10-03T12:27:35.852Z,15.80
2017-10-03T12:30:07.010Z,16.10
2017-10-03T12:32:35.884Z,16.10
2017-10-03T12:35:08.409Z,16.10
2017-10-03T12:37:37.685Z,16.00
2017-10-03T12:40:06.558Z,16.00
2017-10-03T12:42:37.215Z,16.20
2017-10-03T12:45:06.070Z,16.20
2017-10-03T12:47:35.094Z,16.50
2017-10-03T12:50:03.980Z,16.80
2017-10-03T12:52:34.027Z,17.20
2017-10-03T12:55:02.904Z,17.20
2017-10-03T12:57:31.735Z,17.50
2017-10-03T13:00:00.595Z,17.70
2017-10-03T13:02:29.443Z,17.90
2017-10-03T13:04:58.347Z,18.00
2017-10-03T13:07:27.946Z,18.00
2017-10-03T13:09:56.792Z,18.10
2017-10-03T13:12:30.335Z,18.10
2017-10-03T13:15:01.724Z,18.00
2017-10-03T13:17:32.135Z,17.90
2017-10-03T13:20:02.098Z,17.70
2017-10-03T13:22:31.775Z,17.60
2017-10-03T13:25:00.610Z,17.30
2017-10-03T13:27:29.638Z,17.10
2017-10-03T13:29:59.247Z,16.70
2017-10-03T13:32:28.109Z,16.70
2017-10-03T13:34:59.540Z,16.20
2017-10-03T13:37:29.927Z,15.50
2017-10-03T13:42:36.414Z,14.50
2017-10-03T13:45:05.256Z,14.20
2017-10-03T13:47:36.366Z,13.70
2017-10-03T13:50:05.335Z,13.70
2017-10-03T13:52:36.219Z,13.70
2017-10-03T13:55:05.501Z,13.70
2017-10-03T14:00:27.994Z,13.70
2017-10-03T14:02:56.846Z,13.80
2017-10-03T14:05:25.715Z,13.80
2017-10-03T14:07:56.261Z,14.00
2017-10-03T14:10:25.397Z,13.90
2017-10-03T14:12:55.118Z,14.10
2017-10-03T14:15:24.058Z,14.50
2017-10-03T14:17:52.898Z,14.60
2017-10-03T14:20:23.839Z,15.20
2017-10-03T14:22:53.610Z,15.20
2017-10-03T14:30:30.083Z,16.30
2017-10-03T14:33:00.151Z,16.80
2017-10-03T14:35:30.831Z,16.80
2017-10-03T14:38:00.587Z,17.20
2017-10-03T14:40:30.072Z,17.20
2017-10-03T14:43:00.081Z,17.60
2017-10-03T14:45:29.452Z,18.00
2017-10-03T14:47:58.377Z,18.30
2017-10-03T14:53:02.700Z,18.70
2017-10-03T14:55:36.667Z,19.00
2017-10-03T14:58:05.974Z,19.10
2017-10-03T15:00:35.787Z,19.10
2017-10-03T15:03:04.767Z,19.40
2017-10-03T15:05:34.679Z,19.60
2017-10-03T15:08:03.539Z,20.10
2017-10-03T15:10:34.015Z,20.70
2017-10-03T15:13:05.252Z,20.70
2017-10-03T15:15:34.525Z,21.10
2017-10-03T15:18:03.102Z,21.20
2017-10-03T15:20:32.971Z,21.30
2017-10-03T15:23:02.171Z,21.30
2017-10-03T15:25:31.824Z,21.20
2017-10-03T15:28:00.729Z,20.80
2017-10-03T15:30:29.615Z,20.90
2017-10-03T15:32:58.558Z,20.80
2017-10-03T15:35:27.767Z,20.80
2017-10-03T15:37:57.354Z,20.40
2017-10-03T15:40:27.113Z,20.00
2017-10-03T15:42:56.523Z,20.20
2017-10-03T15:45:26.215Z,19.30
2017-10-03T15:47:55.470Z,19.30
2017-10-03T15:50:25.082Z,18.90
2017-10-03T15:52:57.681Z,18.50
2017-10-03T15:55:28.168Z,18.20
2017-10-03T16:00:35.193Z,17.60
2017-10-03T16:03:12.679Z,17.20
2017-10-03T16:05:42.645Z,17.10
2017-10-03T16:08:13.316Z,16.90
2017-10-03T16:10:43.641Z,16.70
2017-10-03T16:13:12.283Z,16.50
2017-10-03T16:15:44.041Z,16.50
2017-10-03T16:18:13.712Z,16.20
2017-10-03T16:20:43.609Z,16.20
2017-10-03T16:23:12.520Z,16.10
2017-10-03T16:25:41.407Z,16.00
2017-10-03T16:28:11.620Z,15.90
2017-10-03T16:30:40.479Z,15.90
2017-10-03T16:33:10.081Z,15.90
2017-10-03T16:35:38.802Z,15.90
2017-10-03T16:38:07.660Z,16.10
2017-10-03T16:40:37.412Z,16.10
2017-10-03T16:43:06.274Z,16.30
2017-10-03T16:45:35.883Z,16.60
2017-10-03T16:48:04.735Z,16.50
2017-10-03T16:50:33.608Z,16.70
2017-10-03T16:53:03.526Z,16.80
2017-10-03T16:55:32.384Z,16.80
2017-10-03T16:58:02.023Z,17.00
2017-10-03T17:00:30.861Z,16.90
2017-10-03T17:02:59.973Z,17.00
2017-10-03T17:05:29.575Z,17.10
2017-10-03T17:07:59.192Z,17.20
2017-10-03T17:10:28.822Z,17.20
2017-10-03T17:12:57.697Z,17.20
2017-10-03T17:15:26.537Z,17.20
2017-10-03T17:17:56.508Z,17.30
2017-10-03T17:20:25.033Z,17.10
2017-10-03T17:22:54.213Z,16.70
2017-10-03T17:25:23.741Z,16.30
2017-10-03T17:27:52.573Z,16.00
2017-10-03T17:30:22.215Z,15.60
2017-10-03T17:32:51.047Z,15.60
2017-10-03T17:35:20.454Z,15.50
2017-10-03T17:37:49.874Z,15.40
2017-10-03T17:40:19.518Z,15.10
2017-10-03T17:42:48.375Z,15.10
2017-10-03T17:45:17.982Z,14.90
2017-10-03T17:47:46.493Z,14.90
2017-10-03T17:50:15.329Z,14.80
2017-10-03T17:52:44.177Z,14.80
2017-10-03T17:55:13.029Z,14.70
2017-10-03T17:57:42.644Z,14.60
2017-10-03T18:00:11.576Z,14.60
2017-10-03T18:02:40.470Z,14.50
2017-10-03T18:05:09.339Z,14.40
2017-10-03T18:07:38.204Z,14.40
2017-10-03T18:10:07.047Z,14.40
2017-10-03T18:12:35.907Z,14.30
2017-10-03T18:15:05.602Z,14.30
2017-10-03T18:17:35.230Z,14.20
2017-10-03T18:20:03.735Z,14.20
2017-10-03T18:22:33.556Z,14.20
2017-10-03T18:25:02.407Z,14.20
2017-10-03T18:27:32.767Z,14.10
2017-10-03T18:30:01.607Z,14.10
2017-10-03T18:32:31.240Z,14.10
2017-10-03T18:35:00.837Z,14.10
2017-10-03T18:37:30.446Z,14.10
2017-10-03T18:40:00.264Z,14.10
2017-10-03T18:42:29.869Z,14.10
2017-10-03T18:44:59.329Z,14.10
2017-10-03T18:47:28.229Z,14.10
2017-10-03T18:49:58.016Z,14.10
2017-10-03T18:52:26.873Z,14.10
2017-10-03T18:54:56.506Z,14.00
2017-10-03T18:57:25.337Z,14.00
2017-10-03T18:59:54.268Z,14.10
2017-10-03T19:02:23.590Z,14.10
2017-10-03T19:04:52.422Z,14.10
2017-10-03T19:07:21.271Z,14.00
2017-10-03T19:09:50.171Z,14.00
2017-10-03T19:12:19.017Z,14.00
2017-10-03T19:14:48.574Z,14.00
2017-10-03T19:17:17.417Z,14.00
2017-10-03T19:19:46.248Z,14.00
2017-10-03T19:22:15.086Z,14.00
2017-10-03T19:24:43.922Z,14.00
2017-10-03T19:27:12.778Z,14.00
2017-10-03T19:29:41.622Z,14.00
2017-10-03T19:32:10.456Z,14.00
2017-10-03T19:34:39.290Z,13.90
2017-10-03T19:37:08.854Z,13.90
2017-10-03T19:39:39.943Z,13.90
2017-10-03T19:42:08.782Z,13.90
2017-10-03T19:44:37.637Z,13.90
2017-10-03T19:47:07.231Z,13.90
2017-10-03T19:49:36.081Z,13.90
2017-10-03T19:52:05.688Z,13.90
2017-10-03T19:54:34.525Z,13.80
2017-10-03T19:57:04.757Z,13.80
2017-10-03T19:59:33.603Z,13.80
2017-10-03T20:02:03.062Z,13.80
2017-10-03T20:04:32.013Z,13.70
2017-10-03T20:07:01.622Z,13.70
2017-10-03T20:09:31.384Z,13.70
2017-10-03T20:12:00.215Z,13.70
2017-10-03T20:14:30.773Z,13.70
2017-10-03T20:17:00.397Z,13.60
2017-10-03T20:19:29.231Z,13.60
2017-10-03T20:21:58.058Z,13.60
2017-10-03T20:24:26.890Z,13.60
2017-10-03T20:26:56.418Z,13.50
2017-10-03T20:29:25.258Z,13.50
2017-10-03T20:31:54.102Z,13.50
2017-10-03T20:34:22.922Z,13.50
2017-10-03T20:36:51.761Z,13.50
2017-10-03T20:39:20.408Z,13.40
2017-10-03T20:41:49.239Z,13.40
2017-10-03T20:44:20.134Z,13.30
2017-10-03T20:46:48.985Z,13.30
2017-10-03T20:49:17.828Z,13.30
2017-10-03T20:51:46.666Z,13.30
2017-10-03T20:54:15.314Z,13.30
2017-10-03T20:56:44.142Z,13.20
2017-10-03T20:59:13.746Z,13.20
2017-10-03T21:01:42.577Z,13.20
2017-10-03T21:04:11.407Z,13.20
2017-10-03T21:06:40.305Z,13.20
2017-10-03T21:09:09.151Z,13.20
2017-10-03T21:11:38.002Z,13.10
2017-10-03T21:14:06.917Z,13.10
2017-10-03T21:16:35.765Z,13.10
2017-10-03T21:19:04.602Z,13.10
2017-10-03T21:21:33.455Z,13.10
2017-10-03T21:24:02.287Z,13.10
2017-10-03T21:26:31.115Z,13.20
2017-10-03T21:28:59.949Z,13.20
2017-10-03T21:31:29.539Z,13.10
2017-10-03T21:33:58.457Z,13.10
2017-10-03T21:36:28.137Z,13.20
2017-10-03T21:38:56.984Z,13.10
2017-10-03T21:41:25.700Z,13.20
2017-10-03T21:43:54.343Z,13.20
2017-10-03T21:46:22.496Z,13.20
2017-10-03T21:48:52.098Z,13.20
2017-10-03T21:51:20.253Z,13.20
2017-10-03T21:53:49.083Z,13.20
2017-10-03T21:56:18.710Z,13.20
2017-10-03T21:58:47.588Z,13.10
2017-10-03T22:01:17.194Z,13.20
2017-10-03T22:03:46.047Z,13.20
2017-10-03T22:06:14.878Z,13.20
2017-10-03T22:08:43.744Z,13.10
2017-10-03T22:11:12.659Z,13.20
2017-10-03T22:13:42.256Z,13.20
2017-10-03T22:16:11.845Z,13.20
2017-10-03T22:18:40.677Z,13.10
2017-10-03T22:21:09.515Z,13.20
2017-10-03T22:23:38.362Z,13.10
2017-10-03T22:26:07.185Z,13.10
2017-10-03T22:28:36.026Z,13.10
2017-10-03T22:31:04.866Z,13.10
2017-10-03T22:33:33.716Z,13.10
2017-10-03T22:36:03.208Z,13.10
2017-10-03T22:38:32.811Z,13.20
2017-10-03T22:41:02.416Z,13.20
2017-10-03T22:43:32.018Z,13.20
2017-10-03T22:46:00.936Z,13.20
2017-10-03T22:48:29.775Z,13.20
2017-10-03T22:51:04.014Z,13.10
2017-10-03T22:53:32.841Z,13.10
2017-10-03T22:56:01.683Z,13.10
2017-10-03T22:58:30.517Z,13.10
2017-10-03T23:00:59.498Z,13.10
2017-10-03T23:03:29.099Z,13.10
2017-10-03T23:05:58.779Z,13.10
2017-10-03T23:08:27.615Z,13.00
2017-10-03T23:10:56.457Z,13.00
2017-10-03T23:13:25.309Z,13.00
2017-10-03T23:15:54.195Z,12.90
2017-10-03T23:18:23.087Z,12.90
2017-10-03T23:20:51.918Z,12.90
2017-10-03T23:23:20.759Z,12.80
2017-10-03T23:25:50.366Z,12.80
2017-10-03T23:28:19.958Z,12.80
2017-10-03T23:30:48.785Z,12.80
2017-10-03T23:33:17.619Z,12.80
2017-10-03T23:35:46.461Z,12.80
2017-10-03T23:38:15.292Z,12.80
2017-10-03T23:40:44.116Z,12.90
2017-10-03T23:43:13.709Z,12.80
2017-10-03T23:45:43.315Z,12.80
2017-10-03T23:48:12.166Z,12.80
2017-10-03T23:50:41.012Z,12.80
2017-10-03T23:53:10.609Z,12.80
2017-10-03T23:55:39.450Z,12.80
2017-10-03T23:58:08.303Z,12.80
